createdAt,value
2018-03-24T00:00:10.633Z,95.50
2018-03-24T00:02:39.262Z,95.50
2018-03-24T00:05:08.348Z,95.30
2018-03-24T00:07:42.327Z,95.20
2018-03-24T00:10:10.945Z,95.00
2018-03-24T00:12:39.408Z,95.00
2018-03-24T00:15:09.244Z,95.10
2018-03-24T00:17:39.332Z,95.00
2018-03-24T00:20:08.862Z,94.50
2018-03-24T00:22:38.333Z,94.40
2018-03-24T00:25:12.924Z,94.40
2018-03-24T00:27:42.112Z,94.00
2018-03-24T00:30:12.341Z,93.90
2018-03-24T00:32:44.343Z,93.80
2018-03-24T00:35:17.983Z,93.80
2018-03-24T00:37:48.929Z,93.60
2018-03-24T00:40:20.022Z,93.80
2018-03-24T00:42:52.202Z,93.80
2018-03-24T00:45:20.655Z,93.90
2018-03-24T00:47:49.531Z,94.10
2018-03-24T00:52:56.732Z,94.60
2018-03-24T00:55:26.617Z,95.10
2018-03-24T00:57:57.341Z,95.50
2018-03-24T01:00:26.138Z,95.50
2018-03-24T01:03:01.068Z,95.70
2018-03-24T01:05:34.819Z,95.90
2018-03-24T01:08:03.508Z,96.10
2018-03-24T01:10:35.627Z,96.30
2018-03-24T01:13:06.188Z,96.40
2018-03-24T01:15:34.950Z,96.30
2018-03-24T01:18:07.324Z,96.30
2018-03-24T01:20:36.547Z,96.20
2018-03-24T01:23:06.702Z,96.30
2018-03-24T01:25:40.533Z,96.20
2018-03-24T01:28:15.329Z,96.30
2018-03-24T01:30:43.906Z,96.20
2018-03-24T01:33:13.111Z,96.10
2018-03-24T01:35:42.489Z,96.10
2018-03-24T01:38:10.889Z,96.10
2018-03-24T01:40:40.027Z,95.90
2018-03-24T01:43:08.775Z,95.80
2018-03-24T01:45:37.955Z,95.70
2018-03-24T01:48:06.429Z,95.60
2018-03-24T01:50:41.937Z,95.40
2018-03-24T01:53:10.867Z,95.40
2018-03-24T01:55:39.366Z,95.30
2018-03-24T01:58:08.718Z,95.50
2018-03-24T02:00:37.935Z,95.30
2018-03-24T02:03:07.336Z,95.40
2018-03-24T02:05:37.314Z,95.70
2018-03-24T02:08:07.076Z,95.70
2018-03-24T02:10:36.493Z,95.70
2018-03-24T02:13:04.964Z,95.50
2018-03-24T02:15:34.326Z,95.40
2018-03-24T02:18:05.039Z,95.50
2018-03-24T02:20:34.859Z,95.50
2018-03-24T02:23:05.662Z,95.40
2018-03-24T02:25:34.902Z,95.20
2018-03-24T02:28:04.969Z,95.20
2018-03-24T02:30:37.860Z,95.00
2018-03-24T02:33:07.021Z,95.00
2018-03-24T02:35:38.416Z,95.00
2018-03-24T02:38:07.137Z,94.90
2018-03-24T02:40:36.823Z,94.80
2018-03-24T02:43:06.739Z,94.80
2018-03-24T02:45:35.311Z,94.90
2018-03-24T02:48:05.814Z,95.20
2018-03-24T02:50:36.285Z,95.30
2018-03-24T02:53:05.324Z,95.40
2018-03-24T02:55:37.293Z,95.50
2018-03-24T02:58:07.972Z,95.50
2018-03-24T03:00:38.400Z,95.20
2018-03-24T03:03:12.500Z,95.20
2018-03-24T03:05:42.920Z,95.20
2018-03-24T03:08:15.588Z,95.00
2018-03-24T03:10:44.822Z,95.00
2018-03-24T03:13:14.614Z,95.00
2018-03-24T03:15:44.436Z,95.00
2018-03-24T03:18:15.549Z,94.80
2018-03-24T03:20:46.599Z,94.70
2018-03-24T03:23:16.669Z,94.50
2018-03-24T03:25:48.248Z,94.10
2018-03-24T03:28:18.463Z,94.10
2018-03-24T03:30:51.917Z,94.10
2018-03-24T03:33:21.246Z,94.10
2018-03-24T03:35:50.640Z,94.00
2018-03-24T03:38:21.473Z,94.10
2018-03-24T03:40:53.879Z,93.90
2018-03-24T03:43:24.363Z,94.20
2018-03-24T03:45:54.793Z,94.30
2018-03-24T03:48:25.731Z,94.10
2018-03-24T03:50:55.921Z,94.00
2018-03-24T03:53:30.652Z,94.00
2018-03-24T03:56:05.200Z,93.80
2018-03-24T03:58:37.763Z,93.70
2018-03-24T04:01:10.945Z,93.70
2018-03-24T04:03:44.611Z,93.70
2018-03-24T04:06:18.155Z,93.50
2018-03-24T04:08:46.866Z,93.60
2018-03-24T04:11:20.121Z,93.50
2018-03-24T04:13:53.729Z,93.30
2018-03-24T04:16:25.911Z,93.40
2018-03-24T04:18:55.755Z,93.20
2018-03-24T04:21:28.350Z,93.00
2018-03-24T04:24:02.965Z,92.90
2018-03-24T04:26:33.323Z,92.70
2018-03-24T04:29:03.130Z,92.30
2018-03-24T04:31:32.346Z,92.40
2018-03-24T04:34:02.424Z,92.50
2018-03-24T04:36:39.644Z,92.40
2018-03-24T04:39:16.993Z,92.10
2018-03-24T04:41:48.245Z,92.00
2018-03-24T04:46:56.235Z,91.90
2018-03-24T04:49:26.049Z,91.80
2018-03-24T04:51:56.586Z,91.90
2018-03-24T04:54:32.889Z,91.80
2018-03-24T04:57:01.918Z,92.00
2018-03-24T04:59:32.563Z,92.10
2018-03-24T05:02:03.376Z,92.40
2018-03-24T05:04:38.619Z,92.30
2018-03-24T05:07:10.395Z,92.30
2018-03-24T05:09:40.291Z,92.40
2018-03-24T05:12:16.833Z,92.60
2018-03-24T05:14:57.261Z,92.80
2018-03-24T05:17:32.699Z,93.00
2018-03-24T05:20:02.167Z,93.00
2018-03-24T05:25:18.026Z,93.40
2018-03-24T06:48:08.073Z,92.00
2018-03-24T06:50:38.223Z,92.70
2018-03-24T06:53:06.776Z,92.70
2018-03-24T06:55:35.182Z,92.70
2018-03-24T06:58:03.612Z,93.00
2018-03-24T07:00:32.836Z,92.80
2018-03-24T07:03:01.236Z,92.80
2018-03-24T07:05:30.455Z,92.50
2018-03-24T07:07:59.639Z,92.60
2018-03-24T07:10:28.222Z,92.60
2018-03-24T07:13:02.159Z,92.40
2018-03-24T07:15:30.537Z,92.20
2018-03-24T07:17:59.027Z,91.90
2018-03-24T07:20:27.618Z,91.40
2018-03-24T07:22:56.185Z,91.50
2018-03-24T07:25:24.598Z,90.90
2018-03-24T07:27:53.769Z,91.00
2018-03-24T07:30:22.370Z,90.90
2018-03-24T07:32:50.791Z,91.30
2018-03-24T07:35:24.669Z,91.00
2018-03-24T07:37:53.875Z,91.00
2018-03-24T07:40:23.148Z,90.20
2018-03-24T07:42:51.688Z,90.20
2018-03-24T07:45:20.264Z,89.90
2018-03-24T07:47:49.427Z,91.00
2018-03-24T07:50:18.683Z,91.00
2018-03-24T07:52:47.144Z,91.00
2018-03-24T07:55:16.346Z,90.60
2018-03-24T07:57:51.334Z,90.40
2018-03-24T08:00:20.711Z,89.90
2018-03-24T08:02:50.973Z,89.80
2018-03-24T08:05:19.597Z,89.80
2018-03-24T08:07:48.000Z,89.90
2018-03-24T08:10:16.570Z,89.50
2018-03-24T08:12:45.212Z,89.40
2018-03-24T08:15:13.681Z,88.70
2018-03-24T08:17:42.075Z,89.90
2018-03-24T08:20:14.971Z,89.20
2018-03-24T08:22:43.353Z,89.00
2018-03-24T08:25:12.243Z,89.80
2018-03-24T08:27:40.649Z,89.30
2018-03-24T08:30:09.063Z,90.00
2018-03-24T08:32:37.537Z,90.20
2018-03-24T08:35:05.954Z,89.90
2018-03-24T08:37:34.347Z,90.30
2018-03-24T08:40:02.817Z,89.80
2018-03-24T08:42:31.230Z,89.80
2018-03-24T08:44:59.777Z,89.10
2018-03-24T08:47:28.154Z,88.50
2018-03-24T08:49:56.529Z,89.70
2018-03-24T08:52:25.736Z,89.80
2018-03-24T08:54:54.345Z,89.70
2018-03-24T08:57:23.507Z,88.30
2018-03-24T08:59:52.128Z,88.30
2018-03-24T09:02:20.507Z,88.50
2018-03-24T09:04:49.133Z,88.90
2018-03-24T09:07:17.553Z,89.50
2018-03-24T09:09:46.136Z,89.40
2018-03-24T09:12:14.546Z,89.40
2018-03-24T09:14:42.928Z,88.80
2018-03-24T09:17:11.355Z,89.70
2018-03-24T09:19:39.922Z,90.10
2018-03-24T09:22:09.105Z,89.60
2018-03-24T09:24:37.706Z,89.60
2018-03-24T09:27:11.527Z,88.40
2018-03-24T09:29:45.643Z,88.30
2018-03-24T09:32:15.952Z,89.70
2018-03-24T09:34:44.310Z,89.70
2018-03-24T09:37:12.675Z,89.10
2018-03-24T09:39:55.233Z,88.60
2018-03-24T09:42:24.281Z,88.30
2018-03-24T09:44:52.663Z,88.90
2018-03-24T09:47:21.077Z,87.90
2018-03-24T09:49:50.022Z,87.70
2018-03-24T09:52:18.430Z,87.70
2018-03-24T09:54:47.811Z,88.40
2018-03-24T09:57:16.409Z,87.60
2018-03-24T09:59:44.816Z,87.70
2018-03-24T10:02:13.298Z,87.40
2018-03-24T10:04:41.692Z,86.60
2018-03-24T10:07:15.793Z,87.30
2018-03-24T10:09:44.211Z,87.00
2018-03-24T10:12:18.062Z,86.80
2018-03-24T10:14:47.466Z,86.70
2018-03-24T10:17:15.871Z,86.70
2018-03-24T10:19:44.269Z,86.90
2018-03-24T10:22:18.280Z,87.10
2018-03-24T10:24:46.711Z,87.00
2018-03-24T10:27:15.094Z,87.00
2018-03-24T10:29:43.511Z,86.90
2018-03-24T10:32:13.170Z,87.10
2018-03-24T10:35:01.048Z,87.10
2018-03-24T10:37:30.396Z,88.20
2018-03-24T10:39:58.863Z,88.20
2018-03-24T10:42:27.233Z,88.00
2018-03-24T10:44:56.564Z,87.40
2018-03-24T10:47:24.965Z,87.20
2018-03-24T10:49:53.541Z,88.10
2018-03-24T10:52:21.989Z,87.90
2018-03-24T10:54:53.950Z,87.40
2018-03-24T10:57:22.333Z,87.30
2018-03-24T10:59:54.216Z,87.00
2018-03-24T11:02:22.661Z,87.10
2018-03-24T11:04:51.270Z,87.10
2018-03-24T11:07:19.700Z,86.50
2018-03-24T11:09:49.207Z,85.70
2018-03-24T11:12:17.657Z,86.70
2018-03-24T11:14:46.049Z,85.80
2018-03-24T11:17:14.914Z,86.40
2018-03-24T11:19:44.096Z,85.60
2018-03-24T11:22:12.523Z,85.60
2018-03-24T11:24:41.716Z,86.60
2018-03-24T11:27:10.110Z,86.60
2018-03-24T11:29:38.532Z,86.50
2018-03-24T11:32:06.930Z,86.20
2018-03-24T11:34:35.326Z,86.20
2018-03-24T11:37:03.745Z,85.20
2018-03-24T11:39:33.416Z,86.10
2018-03-24T11:42:01.811Z,86.20
2018-03-24T11:44:30.430Z,85.70
2018-03-24T11:46:59.576Z,85.40
2018-03-24T11:49:29.094Z,85.40
2018-03-24T11:51:57.518Z,85.40
2018-03-24T11:54:37.932Z,86.40
2018-03-24T11:57:06.346Z,85.90
2018-03-24T11:59:36.180Z,85.10
2018-03-24T12:02:04.579Z,86.00
2018-03-24T12:04:32.978Z,86.00
2018-03-24T12:07:01.439Z,85.50
2018-03-24T12:09:29.866Z,84.60
2018-03-24T12:11:59.024Z,85.40
2018-03-24T12:14:27.449Z,85.00
2018-03-24T12:16:57.191Z,85.10
2018-03-24T12:19:26.391Z,85.50
2018-03-24T12:22:01.077Z,85.50
2018-03-24T12:24:29.493Z,85.40
2018-03-24T12:26:57.941Z,85.50
2018-03-24T12:29:26.364Z,85.40
2018-03-24T12:31:54.744Z,85.80
2018-03-24T12:34:23.185Z,85.90
2018-03-24T12:36:51.623Z,85.70
2018-03-24T12:39:20.039Z,84.80
2018-03-24T12:41:48.487Z,85.80
2018-03-24T12:44:16.933Z,84.70
2018-03-24T12:46:48.912Z,84.80
2018-03-24T12:49:17.316Z,85.20
2018-03-24T12:51:45.714Z,85.00
2018-03-24T12:54:15.012Z,84.30
2018-03-24T12:56:43.414Z,84.30
2018-03-24T12:59:11.849Z,84.80
2018-03-24T13:01:40.310Z,84.70
2018-03-24T13:04:08.758Z,84.60
2018-03-24T13:06:37.135Z,85.10
2018-03-24T13:09:08.960Z,85.30
2018-03-24T13:11:37.391Z,86.00
2018-03-24T13:14:05.972Z,85.40
2018-03-24T13:16:34.382Z,85.30
2018-03-24T13:19:02.804Z,85.50
2018-03-24T13:21:31.234Z,85.80
2018-03-24T13:24:00.202Z,86.20
2018-03-24T13:26:28.626Z,85.90
2018-03-24T13:28:57.075Z,86.50
2018-03-24T13:31:31.649Z,86.10
2018-03-24T13:34:00.211Z,86.20
2018-03-24T13:36:28.622Z,86.20
2018-03-24T13:38:57.036Z,85.70
2018-03-24T13:41:25.429Z,85.30
2018-03-24T13:43:53.845Z,84.80
2018-03-24T13:46:22.245Z,86.40
2018-03-24T13:48:50.829Z,86.60
2018-03-24T13:51:20.012Z,86.20
2018-03-24T13:53:51.665Z,85.20
2018-03-24T13:56:20.115Z,85.20
2018-03-24T13:58:48.497Z,86.50
2018-03-24T14:01:16.937Z,86.70
2018-03-24T14:03:45.330Z,86.50
2018-03-24T14:06:13.768Z,86.60
2018-03-24T14:08:43.268Z,86.70
2018-03-24T14:11:11.822Z,86.90
2018-03-24T14:13:41.025Z,86.90
2018-03-24T14:16:12.039Z,86.90
2018-03-24T14:18:40.474Z,86.90
2018-03-24T14:21:09.819Z,85.70
2018-03-24T14:23:39.045Z,86.40
2018-03-24T14:26:08.202Z,87.10
2018-03-24T14:28:36.768Z,87.10
2018-03-24T14:31:06.068Z,85.90
2018-03-24T14:33:34.469Z,86.60
2018-03-24T14:36:02.862Z,85.20
2018-03-24T14:38:32.314Z,85.00
2018-03-24T14:41:00.922Z,85.00
2018-03-24T14:43:29.325Z,85.20
2018-03-24T14:45:57.729Z,85.90
2018-03-24T14:48:26.125Z,85.90
2018-03-24T14:50:54.726Z,85.30
2018-03-24T14:53:23.188Z,86.30
2018-03-24T14:55:51.585Z,86.60
2018-03-24T14:58:20.003Z,86.20
2018-03-24T15:00:53.662Z,86.60
2018-03-24T15:03:22.277Z,86.30
2018-03-24T15:05:50.709Z,86.50
2018-03-24T15:08:19.089Z,86.70
2018-03-24T15:10:48.266Z,86.50
2018-03-24T15:13:17.492Z,87.00
2018-03-24T15:15:45.926Z,87.00
2018-03-24T15:18:14.341Z,87.20
2018-03-24T15:20:42.924Z,88.00
2018-03-24T15:23:15.885Z,87.30
2018-03-24T15:25:44.329Z,87.60
2018-03-24T15:28:12.713Z,87.80
2018-03-24T15:30:52.885Z,87.00
2018-03-24T15:33:33.116Z,87.50
2018-03-24T15:36:13.321Z,87.10
2018-03-24T15:38:41.955Z,87.80
2018-03-24T15:41:11.304Z,87.90
2018-03-24T15:43:45.373Z,87.90
2018-03-24T15:46:13.785Z,88.10
2018-03-24T15:48:42.204Z,88.00
2018-03-24T15:51:10.626Z,88.10
2018-03-24T15:53:39.787Z,88.50
2018-03-24T15:56:08.201Z,88.40
2018-03-24T15:58:37.577Z,88.80
2018-03-24T16:01:06.826Z,88.50
2018-03-24T16:03:36.151Z,88.40
2018-03-24T16:06:10.001Z,89.50
2018-03-24T16:08:38.429Z,88.90
2018-03-24T16:11:06.870Z,89.20
2018-03-24T16:13:35.331Z,88.70
2018-03-24T16:16:03.728Z,89.30
2018-03-24T16:18:32.160Z,89.80
2018-03-24T16:21:01.314Z,89.80
2018-03-24T16:26:03.893Z,89.60
2018-03-24T16:28:32.332Z,89.90
2018-03-24T16:31:00.944Z,90.10
2018-03-24T16:33:30.281Z,90.30
2018-03-24T16:35:58.895Z,90.30
2018-03-24T16:38:27.277Z,90.40
2018-03-24T16:40:55.770Z,90.40
2018-03-24T16:43:24.217Z,90.60
2018-03-24T16:45:52.608Z,90.50
2018-03-24T16:48:21.906Z,90.50
2018-03-24T16:50:51.122Z,90.50
2018-03-24T16:53:19.714Z,90.50
2018-03-24T16:55:48.252Z,90.50
2018-03-24T16:58:16.674Z,90.60
2018-03-24T17:00:45.987Z,90.60
2018-03-24T17:03:14.413Z,90.60
2018-03-24T17:05:42.964Z,90.50
2018-03-24T17:08:11.373Z,90.50
2018-03-24T17:10:39.760Z,90.50
2018-03-24T17:13:24.349Z,90.60
2018-03-24T17:15:58.353Z,90.50
2018-03-24T17:18:26.796Z,90.30
2018-03-24T17:20:55.992Z,90.40
2018-03-24T17:23:24.593Z,90.30
2018-03-24T17:25:52.992Z,90.30
2018-03-24T17:28:22.191Z,90.30
2018-03-24T17:30:50.908Z,90.30
2018-03-24T17:33:19.334Z,90.30
2018-03-24T17:35:47.778Z,90.40
2018-03-24T17:38:21.641Z,90.40
2018-03-24T17:40:55.445Z,90.40
2018-03-24T17:43:24.003Z,90.50
2018-03-24T17:45:52.394Z,90.70
2018-03-24T17:48:21.083Z,90.80
2018-03-24T17:50:49.678Z,90.80
2018-03-24T17:53:18.893Z,91.10
2018-03-24T17:55:47.312Z,91.10
2018-03-24T17:58:16.519Z,91.30
2018-03-24T18:00:44.953Z,91.30
2018-03-24T18:03:13.401Z,91.60
2018-03-24T18:05:44.002Z,91.60
2018-03-24T18:08:12.407Z,91.60
2018-03-24T18:10:41.579Z,92.10
2018-03-24T18:13:10.920Z,92.10
2018-03-24T18:15:39.365Z,92.10
2018-03-24T18:18:07.769Z,92.10
2018-03-24T18:20:36.340Z,92.20
2018-03-24T18:23:05.630Z,92.30
2018-03-24T18:25:34.228Z,92.30
2018-03-24T18:28:03.337Z,92.40
2018-03-24T18:30:32.502Z,92.50
2018-03-24T18:33:00.925Z,92.50
2018-03-24T18:35:30.116Z,92.00
2018-03-24T18:37:58.529Z,92.00
2018-03-24T18:40:27.726Z,92.20
2018-03-24T18:42:56.123Z,92.20
2018-03-24T18:45:24.733Z,92.20
2018-03-24T18:47:58.416Z,92.20
2018-03-24T18:50:29.467Z,92.30
2018-03-24T18:52:58.049Z,92.50
2018-03-24T18:55:27.605Z,92.80
2018-03-24T18:57:55.981Z,92.90
2018-03-24T19:00:24.414Z,92.90
2018-03-24T19:02:52.822Z,92.90
2018-03-24T19:05:21.983Z,93.00
2018-03-24T19:07:50.449Z,93.30
2018-03-24T19:10:19.034Z,93.00
2018-03-24T19:12:47.430Z,93.10
2018-03-24T19:15:15.876Z,93.30
2018-03-24T19:17:44.279Z,93.10
2018-03-24T19:20:12.649Z,93.00
2018-03-24T19:22:41.064Z,92.90
2018-03-24T19:25:09.506Z,92.80
2018-03-24T19:27:38.676Z,92.90
2018-03-24T19:30:07.049Z,92.90
2018-03-24T19:32:35.711Z,92.90
2018-03-24T19:35:10.366Z,93.10
2018-03-24T19:37:38.777Z,93.10
2018-03-24T19:40:07.256Z,93.00
2018-03-24T19:42:35.645Z,92.90
2018-03-24T19:45:04.238Z,92.90
2018-03-24T19:47:33.410Z,93.10
2018-03-24T19:50:01.862Z,93.10
2018-03-24T19:52:30.341Z,93.10
2018-03-24T19:54:58.958Z,93.20
2018-03-24T19:57:32.766Z,93.30
2018-03-24T20:00:05.718Z,93.30
2018-03-24T20:02:36.042Z,93.50
2018-03-24T20:05:04.443Z,93.40
2018-03-24T20:07:32.883Z,93.50
2018-03-24T20:10:07.681Z,93.60
2018-03-24T20:12:36.148Z,93.60
2018-03-24T20:15:05.505Z,93.70
2018-03-24T20:17:33.909Z,93.70
2018-03-24T20:20:03.059Z,93.70
2018-03-24T20:22:31.499Z,93.70
2018-03-24T20:25:00.088Z,93.60
2018-03-24T20:27:28.505Z,93.70
2018-03-24T20:29:57.108Z,93.70
2018-03-24T20:32:25.501Z,93.80
2018-03-24T20:34:53.941Z,93.70
2018-03-24T20:37:23.090Z,93.90
2018-03-24T20:39:51.513Z,93.90
2018-03-24T20:42:24.356Z,93.90
2018-03-24T20:44:52.721Z,93.90
2018-03-24T20:47:21.341Z,94.00
2018-03-24T20:49:49.733Z,94.20
2018-03-24T20:52:18.917Z,94.60
2018-03-24T20:54:47.298Z,94.60
2018-03-24T20:57:15.690Z,94.70
2018-03-24T20:59:44.146Z,94.70
2018-03-24T21:02:12.651Z,94.60
2018-03-24T21:04:42.585Z,94.70
2018-03-24T21:07:11.065Z,94.60
2018-03-24T21:09:40.182Z,94.50
2018-03-24T21:12:08.570Z,94.60
2018-03-24T21:14:37.748Z,95.00
2018-03-24T21:17:06.149Z,94.70
2018-03-24T21:19:34.565Z,94.90
2018-03-24T21:22:02.950Z,95.00
2018-03-24T21:24:31.387Z,94.90
2018-03-24T21:27:04.005Z,94.80
2018-03-24T21:29:33.151Z,94.80
2018-03-24T21:32:02.462Z,94.80
2018-03-24T21:34:31.060Z,94.90
2018-03-24T21:36:59.673Z,94.90
2018-03-24T21:39:28.189Z,95.00
2018-03-24T21:41:56.752Z,95.00
2018-03-24T21:44:25.241Z,95.10
2018-03-24T21:46:54.393Z,95.40
2018-03-24T21:49:27.237Z,95.40
2018-03-24T21:51:55.636Z,95.50
2018-03-24T21:54:24.013Z,95.70
2018-03-24T21:56:52.435Z,95.60
2018-03-24T21:59:21.026Z,95.70
2018-03-24T22:01:49.618Z,95.50
2018-03-24T22:04:18.002Z,95.50
2018-03-24T22:06:46.385Z,95.50
2018-03-24T22:09:14.822Z,95.40
2018-03-24T22:11:48.813Z,95.50
2018-03-24T22:14:18.022Z,95.70
2018-03-24T22:16:46.394Z,95.60
2018-03-24T22:19:14.956Z,95.60
2018-03-24T22:21:44.279Z,95.70
2018-03-24T22:24:12.849Z,95.70
2018-03-24T22:26:41.245Z,95.50
2018-03-24T22:29:10.477Z,95.30
2018-03-24T22:31:39.626Z,95.20
2018-03-24T22:34:14.208Z,95.20
2018-03-24T22:36:45.026Z,95.20
2018-03-24T22:39:13.441Z,95.10
2018-03-24T22:41:41.825Z,95.10
2018-03-24T22:44:11.159Z,95.00
2018-03-24T22:46:39.640Z,94.90
2018-03-24T22:49:08.026Z,95.10
2018-03-24T22:51:36.569Z,95.10
2018-03-24T22:54:05.151Z,95.60
2018-03-24T22:56:33.702Z,95.50
2018-03-24T22:59:02.294Z,95.60
2018-03-24T23:01:31.503Z,95.80
2018-03-24T23:03:59.900Z,95.80
2018-03-24T23:06:29.255Z,95.90
2018-03-24T23:08:58.440Z,95.90
2018-03-24T23:11:26.856Z,95.90
2018-03-24T23:13:58.411Z,96.00
2018-03-24T23:16:26.976Z,96.10
2018-03-24T23:18:55.505Z,96.10
2018-03-24T23:21:23.964Z,96.10
2018-03-24T23:23:52.337Z,96.30
2018-03-24T23:26:20.712Z,96.40
2018-03-24T23:28:50.346Z,96.50
2018-03-24T23:31:18.784Z,96.60
2018-03-24T23:33:47.154Z,96.80
2018-03-24T23:36:15.521Z,96.80
2018-03-24T23:38:44.679Z,96.80
2018-03-24T23:41:13.099Z,96.80
2018-03-24T23:43:41.485Z,96.80
2018-03-24T23:46:09.910Z,96.70
2018-03-24T23:48:38.344Z,96.40
2018-03-24T23:51:06.720Z,96.10
2018-03-24T23:53:35.108Z,96.10
2018-03-24T23:56:03.524Z,96.10
2018-03-24T23:58:31.950Z,96.00
